createdAt,value
2023-03-17T00:00:22.302Z,98118.03
2023-03-17T00:03:08.107Z,98126.16
2023-03-17T00:05:54.851Z,98127.47
2023-03-17T00:08:40.279Z,98138.63
2023-03-17T00:11:27.612Z,98135.06
2023-03-17T00:14:13.315Z,98123.34
2023-03-17T00:16:58.576Z,98124.84
2023-03-17T00:19:44.099Z,98121.06
2023-03-17T00:22:29.452Z,98118.97
2023-03-17T00:25:34.314Z,98116.50
2023-03-17T00:28:25.457Z,98111.91
2023-03-17T00:31:16.609Z,98095.00
2023-03-17T00:34:02.351Z,98100.28
2023-03-17T00:36:49.590Z,98096.09
2023-03-17T00:39:35.122Z,98080.09
2023-03-17T00:42:20.314Z,98085.78
2023-03-17T00:45:06.009Z,98089.91
2023-03-17T00:47:54.191Z,98078.16
2023-03-17T00:50:39.698Z,98084.22
2023-03-17T00:53:24.978Z,98077.06
2023-03-17T00:56:13.944Z,98073.25
2023-03-17T00:58:59.165Z,98082.38
2023-03-17T01:01:44.600Z,98070.75
2023-03-17T01:04:29.940Z,98069.59
2023-03-17T01:07:15.251Z,98072.84
2023-03-17T01:10:00.668Z,98071.06
2023-03-17T01:12:46.274Z,98059.88
2023-03-17T01:15:33.432Z,98072.72
2023-03-17T01:18:21.501Z,98060.81
2023-03-17T01:21:06.792Z,98071.97
2023-03-17T01:23:52.366Z,98056.94
2023-03-17T01:26:38.662Z,98057.13
2023-03-17T01:29:24.142Z,98055.84
2023-03-17T01:32:09.847Z,98052.94
2023-03-17T01:34:55.061Z,98052.91
2023-03-17T01:37:40.499Z,98049.13
2023-03-17T01:40:29.661Z,98045.63
2023-03-17T01:43:24.997Z,98047.13
2023-03-17T01:46:16.328Z,98050.84
2023-03-17T01:49:23.476Z,98050.69
2023-03-17T01:52:13.143Z,98043.56
2023-03-17T01:55:03.410Z,98042.94
2023-03-17T01:57:53.080Z,98053.75
2023-03-17T02:00:39.455Z,98044.59
2023-03-17T02:03:26.047Z,98045.91
2023-03-17T02:06:12.425Z,98037.56
2023-03-17T02:08:58.851Z,98007.16
2023-03-17T02:11:45.524Z,97980.13
2023-03-17T02:14:31.166Z,98013.19
2023-03-17T02:17:16.542Z,98006.31
2023-03-17T02:20:17.073Z,98016.91
2023-03-17T02:23:03.115Z,97940.56
2023-03-17T02:25:51.742Z,97998.38
2023-03-17T02:28:37.211Z,98016.59
2023-03-17T02:31:27.682Z,98016.09
2023-03-17T02:34:12.934Z,98021.66
2023-03-17T02:36:58.970Z,97962.13
2023-03-17T02:39:45.200Z,98022.66
2023-03-17T02:42:30.439Z,98018.06
2023-03-17T02:45:17.680Z,98020.03
2023-03-17T02:48:04.295Z,98018.72
2023-03-17T02:50:50.002Z,98007.75
2023-03-17T02:53:35.580Z,97969.97
2023-03-17T02:56:20.691Z,98000.41
2023-03-17T02:59:06.006Z,97973.41
2023-03-17T03:01:51.279Z,98010.22
2023-03-17T03:04:36.908Z,98002.53
2023-03-17T03:07:22.387Z,98000.91
2023-03-17T03:10:08.113Z,97998.56
2023-03-17T03:12:53.542Z,97991.03
2023-03-17T03:15:41.606Z,97991.50
2023-03-17T03:18:27.207Z,97932.00
2023-03-17T03:21:15.202Z,97991.59
2023-03-17T03:24:00.422Z,97992.88
2023-03-17T03:26:45.711Z,97923.66
2023-03-17T03:29:31.428Z,97994.00
2023-03-17T03:32:16.659Z,97974.78
2023-03-17T03:35:02.174Z,97978.34
2023-03-17T03:37:48.060Z,97983.78
2023-03-17T03:40:34.362Z,97973.69
2023-03-17T03:43:23.711Z,97912.41
2023-03-17T03:46:09.315Z,97983.00
2023-03-17T03:48:55.153Z,97969.63
2023-03-17T03:51:40.700Z,97978.00
2023-03-17T03:54:25.935Z,97975.06
2023-03-17T03:57:11.363Z,97966.41
2023-03-17T03:59:56.517Z,97976.00
2023-03-17T04:02:42.181Z,97978.59
2023-03-17T04:05:27.560Z,97981.72
2023-03-17T04:08:12.860Z,97961.53
2023-03-17T04:10:58.981Z,97982.44
2023-03-17T04:13:44.274Z,97989.66
2023-03-17T04:16:29.730Z,97986.47
2023-03-17T04:19:14.711Z,97993.19
2023-03-17T04:21:59.835Z,97952.50
2023-03-17T04:24:45.379Z,97990.19
2023-03-17T04:27:30.938Z,97983.94
2023-03-17T04:30:17.089Z,97974.19
2023-03-17T04:33:02.696Z,97973.09
2023-03-17T04:35:48.204Z,97973.47
2023-03-17T04:38:34.236Z,97956.81
2023-03-17T04:41:19.752Z,97923.78
2023-03-17T04:44:05.468Z,97947.84
2023-03-17T04:46:51.201Z,97950.78
2023-03-17T04:49:36.819Z,97942.50
2023-03-17T04:52:22.259Z,97935.31
2023-03-17T04:55:08.075Z,97863.13
2023-03-17T04:57:53.303Z,97936.03
2023-03-17T05:00:38.757Z,97933.50
2023-03-17T05:03:27.265Z,97933.69
2023-03-17T05:06:13.632Z,97939.13
2023-03-17T05:08:58.832Z,97941.16
2023-03-17T05:11:44.052Z,97933.84
2023-03-17T05:14:29.332Z,97927.34
2023-03-17T05:17:15.015Z,97927.22
2023-03-17T05:20:00.374Z,97934.53
2023-03-17T05:22:45.777Z,97925.91
2023-03-17T05:25:31.021Z,97936.03
2023-03-17T05:28:16.282Z,97851.06
2023-03-17T05:31:01.509Z,97927.88
2023-03-17T05:33:46.927Z,97927.38
2023-03-17T05:36:32.334Z,97827.44
2023-03-17T05:39:17.796Z,97902.06
2023-03-17T05:42:03.414Z,97905.00
2023-03-17T05:44:49.031Z,97867.53
2023-03-17T05:47:35.059Z,97923.47
2023-03-17T05:50:20.255Z,97936.00
2023-03-17T05:53:05.781Z,97937.69
2023-03-17T05:55:50.952Z,97947.47
2023-03-17T05:58:36.255Z,97949.91
2023-03-17T06:01:21.855Z,97952.22
2023-03-17T06:04:07.183Z,97950.06
2023-03-17T06:06:52.802Z,97942.41
2023-03-17T06:09:38.260Z,97941.97
2023-03-17T06:12:24.246Z,97940.91
2023-03-17T06:15:09.802Z,97937.69
2023-03-17T06:17:55.201Z,97934.03
2023-03-17T06:20:40.520Z,97930.41
2023-03-17T06:23:25.645Z,97925.91
2023-03-17T06:26:11.204Z,97927.28
2023-03-17T06:28:56.666Z,97925.91
2023-03-17T06:31:41.935Z,97939.03
2023-03-17T06:34:27.303Z,97933.59
2023-03-17T06:37:12.719Z,97932.38
2023-03-17T06:39:58.023Z,97920.78
2023-03-17T06:42:43.827Z,97899.19
2023-03-17T06:45:29.702Z,97934.72
2023-03-17T06:48:15.443Z,97933.97
2023-03-17T06:51:00.913Z,97936.50
2023-03-17T06:53:46.150Z,97915.03
2023-03-17T06:56:31.360Z,97932.84
2023-03-17T06:59:17.057Z,97930.09
2023-03-17T07:02:02.707Z,97926.19
2023-03-17T07:04:48.171Z,97935.31
2023-03-17T07:07:33.899Z,97920.09
2023-03-17T07:10:19.367Z,97939.25
2023-03-17T07:13:04.734Z,97941.44
2023-03-17T07:15:50.828Z,97924.91
2023-03-17T07:18:36.005Z,97944.63
2023-03-17T07:21:21.662Z,97956.28
2023-03-17T07:24:06.838Z,97953.84
2023-03-17T07:26:52.133Z,97954.63
2023-03-17T07:29:37.457Z,97943.91
2023-03-17T07:32:22.907Z,97887.88
2023-03-17T07:35:08.280Z,97940.63
2023-03-17T07:37:53.415Z,97935.78
2023-03-17T07:40:38.908Z,97920.50
2023-03-17T07:43:24.072Z,97944.19
2023-03-17T07:46:09.640Z,97952.88
2023-03-17T07:48:55.486Z,97939.94
2023-03-17T07:51:41.059Z,97923.88
2023-03-17T07:54:28.471Z,97938.56
2023-03-17T07:57:13.977Z,97936.97
2023-03-17T07:59:59.142Z,97935.28
2023-03-17T08:02:44.393Z,97928.22
2023-03-17T08:05:29.800Z,97933.81
2023-03-17T08:08:15.001Z,97931.03
2023-03-17T08:11:04.957Z,97869.69
2023-03-17T08:13:50.452Z,97924.94
2023-03-17T08:16:35.915Z,97928.75
2023-03-17T08:19:21.835Z,97899.34
2023-03-17T08:22:07.441Z,97922.13
2023-03-17T08:24:52.560Z,97920.69
2023-03-17T08:27:37.685Z,97928.50
2023-03-17T08:30:23.259Z,97926.28
2023-03-17T08:33:09.259Z,97864.03
2023-03-17T08:35:54.424Z,97921.91
2023-03-17T08:38:41.356Z,97905.66
2023-03-17T08:41:27.845Z,97925.13
2023-03-17T08:44:13.581Z,97912.53
2023-03-17T08:46:59.118Z,97918.56
2023-03-17T08:49:44.224Z,97919.16
2023-03-17T08:52:29.859Z,97915.19
2023-03-17T08:55:15.879Z,97903.00
2023-03-17T08:58:01.093Z,97897.13
2023-03-17T09:00:46.815Z,97895.28
2023-03-17T09:03:33.806Z,97886.72
2023-03-17T09:06:19.510Z,97896.50
2023-03-17T09:09:05.016Z,97897.91
2023-03-17T09:11:50.413Z,97861.13
2023-03-17T09:14:43.521Z,97878.19
2023-03-17T09:17:29.265Z,97883.66
2023-03-17T09:20:14.742Z,97891.00
2023-03-17T09:23:00.156Z,97897.13
2023-03-17T09:25:45.733Z,97894.19
2023-03-17T09:28:31.128Z,97890.94
2023-03-17T09:31:16.614Z,97887.34
2023-03-17T09:34:02.663Z,97875.44
2023-03-17T09:36:48.722Z,97876.97
2023-03-17T09:39:34.004Z,97881.03
2023-03-17T09:42:26.588Z,97879.38
2023-03-17T09:45:24.534Z,97877.56
2023-03-17T09:48:40.620Z,97876.69
2023-03-17T09:51:26.276Z,97880.13
2023-03-17T09:54:16.215Z,97876.91
2023-03-17T09:57:16.533Z,97873.13
2023-03-17T10:00:13.044Z,97879.94
2023-03-17T10:02:59.001Z,97831.38
2023-03-17T10:05:44.828Z,97869.94
2023-03-17T10:08:33.239Z,97882.28
2023-03-17T10:11:24.375Z,97871.91
2023-03-17T10:14:27.607Z,97823.75
2023-03-17T10:17:13.378Z,97845.84
2023-03-17T10:20:05.392Z,97838.13
2023-03-17T10:22:59.216Z,97848.31
2023-03-17T10:25:44.874Z,97845.00
2023-03-17T10:28:32.814Z,97836.41
2023-03-17T10:31:26.648Z,97836.91
2023-03-17T10:34:14.834Z,97841.38
2023-03-17T10:37:07.378Z,97839.50
2023-03-17T10:39:56.630Z,97845.09
2023-03-17T10:42:51.937Z,97843.09
2023-03-17T10:45:42.231Z,97845.50
2023-03-17T10:48:36.963Z,97840.22
2023-03-17T10:51:34.441Z,97849.28
2023-03-17T10:54:22.638Z,97845.81
2023-03-17T10:57:08.350Z,97837.25
2023-03-17T10:59:59.522Z,97831.22
2023-03-17T11:02:49.251Z,97788.53
2023-03-17T11:05:34.628Z,97834.50
2023-03-17T11:08:20.129Z,97812.69
2023-03-17T11:11:21.338Z,97825.09
2023-03-17T11:14:11.447Z,97823.16
2023-03-17T11:17:13.615Z,97818.66
2023-03-17T11:20:05.148Z,97813.94
2023-03-17T11:23:23.890Z,97811.75
2023-03-17T11:26:24.661Z,97810.09
2023-03-17T11:29:37.679Z,97810.66
2023-03-17T11:32:41.418Z,97802.78
2023-03-17T11:35:32.769Z,97810.69
2023-03-17T11:38:24.398Z,97803.38
2023-03-17T11:41:31.425Z,97809.97
2023-03-17T11:44:38.716Z,97802.94
2023-03-17T11:47:45.163Z,97804.44
2023-03-17T11:51:05.812Z,97796.13
2023-03-17T11:53:59.850Z,97788.69
2023-03-17T11:57:00.935Z,97794.88
2023-03-17T11:59:52.281Z,97797.88
2023-03-17T12:02:49.382Z,97794.47
2023-03-17T12:05:35.475Z,97778.66
2023-03-17T12:08:38.686Z,97784.84
2023-03-17T12:11:28.980Z,97779.91
2023-03-17T12:14:36.386Z,97785.31
2023-03-17T12:17:34.392Z,97785.75
2023-03-17T12:20:55.145Z,97787.69
2023-03-17T12:23:52.333Z,97780.72
2023-03-17T12:27:07.307Z,97780.06
2023-03-17T12:30:00.446Z,97783.72
2023-03-17T12:33:30.941Z,97780.84
2023-03-17T12:36:17.937Z,97779.78
2023-03-17T12:39:13.742Z,97782.84
2023-03-17T12:42:10.856Z,97778.22
2023-03-17T12:45:23.390Z,97778.09
2023-03-17T12:48:23.796Z,97772.44
2023-03-17T12:51:46.736Z,97769.34
2023-03-17T12:54:37.473Z,97780.13
2023-03-17T12:57:30.030Z,97768.53
2023-03-17T13:00:23.230Z,97766.47
2023-03-17T13:03:14.254Z,97760.81
2023-03-17T13:06:06.200Z,97708.09
2023-03-17T13:08:53.104Z,97759.84
2023-03-17T13:11:38.422Z,97756.44
2023-03-17T13:14:42.731Z,97766.72
2023-03-17T13:17:28.081Z,97755.38
2023-03-17T13:20:17.434Z,97746.53
2023-03-17T13:23:16.145Z,97747.81
2023-03-17T13:26:01.647Z,97745.72
2023-03-17T13:28:51.227Z,97744.91
2023-03-17T13:31:37.341Z,97741.09
2023-03-17T13:34:22.487Z,97744.91
2023-03-17T13:37:29.287Z,97740.84
2023-03-17T13:40:22.911Z,97738.91
2023-03-17T13:43:17.504Z,97738.72
2023-03-17T13:46:25.878Z,97733.56
2023-03-17T13:49:20.286Z,97726.75
2023-03-17T13:52:15.399Z,97709.66
2023-03-17T13:55:18.648Z,97729.22
2023-03-17T13:58:08.214Z,97723.91
2023-03-17T14:01:00.552Z,97721.38
2023-03-17T14:03:50.852Z,97648.44
2023-03-17T14:06:38.183Z,97705.44
2023-03-17T14:09:43.522Z,97707.72
2023-03-17T14:12:46.714Z,97705.16
2023-03-17T14:15:45.278Z,97699.06
2023-03-17T14:18:33.709Z,97702.22
2023-03-17T14:21:24.954Z,97699.88
2023-03-17T14:24:29.920Z,97695.47
2023-03-17T14:27:14.933Z,97686.06
2023-03-17T14:30:06.753Z,97689.66
2023-03-17T14:33:20.897Z,97688.28
2023-03-17T14:36:09.214Z,97682.31
2023-03-17T14:38:56.749Z,97678.00
2023-03-17T14:41:42.197Z,97676.41
2023-03-17T14:44:28.019Z,97684.41
2023-03-17T14:47:39.712Z,97691.16
2023-03-17T14:50:29.562Z,97680.91
2023-03-17T14:53:15.082Z,97652.00
2023-03-17T14:56:00.730Z,97687.03
2023-03-17T14:58:49.892Z,97673.59
2023-03-17T15:01:44.361Z,97673.59
2023-03-17T15:04:35.353Z,97664.25
2023-03-17T15:07:39.276Z,97675.78
2023-03-17T15:10:27.482Z,97664.19
2023-03-17T15:13:13.600Z,97670.75
2023-03-17T15:15:59.190Z,97677.00
2023-03-17T15:18:45.059Z,97653.81
2023-03-17T15:21:43.500Z,97671.19
2023-03-17T15:24:40.045Z,97674.97
2023-03-17T15:27:25.810Z,97648.75
2023-03-17T15:30:12.290Z,97662.13
2023-03-17T15:33:01.209Z,97659.72
2023-03-17T15:35:46.313Z,97671.97
2023-03-17T15:38:32.173Z,97672.09
2023-03-17T15:41:17.702Z,97657.88
2023-03-17T15:44:04.199Z,97658.13
2023-03-17T15:46:50.380Z,97659.41
2023-03-17T15:49:35.694Z,97622.53
2023-03-17T15:52:23.860Z,97667.25
2023-03-17T15:55:16.964Z,97659.59
2023-03-17T15:58:02.330Z,97661.22
2023-03-17T16:00:51.419Z,97628.47
2023-03-17T16:03:36.714Z,97645.09
2023-03-17T16:06:24.572Z,97660.78
2023-03-17T16:09:15.771Z,97668.59
2023-03-17T16:12:00.899Z,97654.97
2023-03-17T16:14:45.945Z,97647.84
2023-03-17T16:17:33.062Z,97648.16
2023-03-17T16:20:23.236Z,97653.28
2023-03-17T16:23:11.595Z,97647.47
2023-03-17T16:26:04.620Z,97647.16
2023-03-17T16:28:57.651Z,97661.25
2023-03-17T16:31:46.129Z,97651.72
2023-03-17T16:34:31.259Z,97640.13
2023-03-17T16:37:16.785Z,97645.56
2023-03-17T16:40:02.010Z,97647.91
2023-03-17T16:42:48.347Z,97588.00
2023-03-17T16:45:34.825Z,97645.41
2023-03-17T16:48:20.443Z,97644.00
2023-03-17T16:51:07.396Z,97624.47
2023-03-17T16:53:52.776Z,97638.88
2023-03-17T16:56:40.555Z,97637.41
2023-03-17T16:59:26.386Z,97644.16
2023-03-17T17:02:15.975Z,97648.31
2023-03-17T17:05:01.167Z,97605.81
2023-03-17T17:07:47.990Z,97645.13
2023-03-17T17:10:34.547Z,97649.41
2023-03-17T17:13:19.742Z,97645.44
2023-03-17T17:16:05.538Z,97640.59
2023-03-17T17:18:51.120Z,97640.91
2023-03-17T17:21:36.267Z,97631.53
2023-03-17T17:24:21.690Z,97633.22
2023-03-17T17:27:06.962Z,97610.72
2023-03-17T17:29:52.321Z,97586.31
2023-03-17T17:32:37.709Z,97637.88
2023-03-17T17:35:24.000Z,97641.72
2023-03-17T17:38:24.636Z,97645.97
2023-03-17T17:41:12.152Z,97601.06
2023-03-17T17:43:57.493Z,97660.84
2023-03-17T17:46:42.673Z,97657.53
2023-03-17T17:49:27.865Z,97647.16
2023-03-17T17:52:13.162Z,97656.72
2023-03-17T17:54:58.703Z,97650.91
2023-03-17T17:57:44.275Z,97642.38
2023-03-17T18:00:29.729Z,97658.19
2023-03-17T18:03:15.249Z,97589.06
2023-03-17T18:06:01.740Z,97661.44
2023-03-17T18:08:49.110Z,97670.03
2023-03-17T18:11:34.672Z,97667.03
2023-03-17T18:14:20.610Z,97661.56
2023-03-17T18:17:05.873Z,97666.72
2023-03-17T18:19:52.435Z,97668.09
2023-03-17T18:22:37.903Z,97677.53
2023-03-17T18:25:23.735Z,97615.53
2023-03-17T18:28:08.893Z,97635.56
2023-03-17T18:30:54.802Z,97687.81
2023-03-17T18:33:43.435Z,97687.75
2023-03-17T18:36:29.754Z,97681.69
2023-03-17T18:39:16.158Z,97631.53
2023-03-17T18:42:01.748Z,97679.31
2023-03-17T18:44:49.566Z,97682.31
2023-03-17T18:47:34.666Z,97675.59
2023-03-17T18:50:21.258Z,97676.59
2023-03-17T18:53:06.855Z,97685.56
2023-03-17T18:55:52.201Z,97687.81
2023-03-17T18:58:37.244Z,97670.28
2023-03-17T19:01:23.276Z,97692.19
2023-03-17T19:04:08.887Z,97691.03
2023-03-17T19:06:54.166Z,97688.41
2023-03-17T19:09:39.726Z,97687.66
2023-03-17T19:12:25.206Z,97691.81
2023-03-17T19:15:11.385Z,97689.47
2023-03-17T19:17:56.779Z,97682.53
2023-03-17T19:20:42.529Z,97653.75
2023-03-17T19:23:28.647Z,97681.66
2023-03-17T19:26:14.340Z,97666.66
2023-03-17T19:28:59.782Z,97659.31
2023-03-17T19:31:48.431Z,97675.78
2023-03-17T19:34:38.388Z,97667.50
2023-03-17T19:37:24.139Z,97665.50
2023-03-17T19:40:10.699Z,97597.84
2023-03-17T19:42:56.585Z,97662.31
2023-03-17T19:45:41.887Z,97658.50
2023-03-17T19:48:27.302Z,97663.63
2023-03-17T19:51:12.929Z,97660.81
2023-03-17T19:53:58.137Z,97660.22
2023-03-17T19:56:44.436Z,97584.47
2023-03-17T19:59:32.090Z,97663.72
2023-03-17T20:02:19.540Z,97658.84
2023-03-17T20:05:05.812Z,97663.97
2023-03-17T20:07:50.879Z,97669.66
2023-03-17T20:10:36.228Z,97668.88
2023-03-17T20:13:22.189Z,97660.66
2023-03-17T20:16:08.494Z,97677.28
2023-03-17T20:18:54.056Z,97668.75
2023-03-17T20:21:39.258Z,97667.97
2023-03-17T20:24:24.898Z,97670.22
2023-03-17T20:27:10.708Z,97605.97
2023-03-17T20:29:56.266Z,97682.44
2023-03-17T20:32:41.644Z,97442.06
2023-03-17T20:35:26.746Z,97680.22
2023-03-17T20:38:12.199Z,97675.94
2023-03-17T20:41:07.758Z,97664.41
2023-03-17T20:43:53.143Z,97657.53
2023-03-17T20:46:38.260Z,97669.28
2023-03-17T20:49:23.730Z,97603.94
2023-03-17T20:52:11.688Z,97685.94
2023-03-17T20:54:57.694Z,97680.88
2023-03-17T20:57:45.732Z,97672.56
2023-03-17T21:00:32.006Z,97625.69
2023-03-17T21:03:17.353Z,97677.63
2023-03-17T21:06:02.968Z,97659.38
2023-03-17T21:08:49.812Z,97643.31
2023-03-17T21:11:36.707Z,97644.31
2023-03-17T21:14:22.208Z,97670.72
2023-03-17T21:17:09.869Z,97670.72
2023-03-17T21:19:55.345Z,97675.22
2023-03-17T21:22:40.927Z,97645.97
2023-03-17T21:25:26.283Z,97676.97
2023-03-17T21:28:11.588Z,97682.06
2023-03-17T21:30:57.700Z,97671.09
2023-03-17T21:33:43.566Z,97662.78
2023-03-17T21:36:28.832Z,97684.69
2023-03-17T21:39:14.024Z,97682.06
2023-03-17T21:41:59.902Z,97608.59
2023-03-17T21:44:45.519Z,97670.09
2023-03-17T21:47:31.453Z,97687.13
2023-03-17T21:50:18.801Z,97680.25
2023-03-17T21:53:05.667Z,97690.16
2023-03-17T21:55:52.134Z,97688.56
2023-03-17T21:58:37.679Z,97688.34
2023-03-17T22:01:23.800Z,97684.28
2023-03-17T22:04:10.279Z,97687.34
2023-03-17T22:06:55.538Z,97682.66
2023-03-17T22:09:42.017Z,97684.88
2023-03-17T22:12:28.219Z,97687.75
2023-03-17T22:15:13.581Z,97679.84
2023-03-17T22:17:58.780Z,97677.78
2023-03-17T22:20:44.381Z,97685.50
2023-03-17T22:23:30.459Z,97677.38
2023-03-17T22:26:19.128Z,97678.19
2023-03-17T22:29:04.465Z,97682.66
2023-03-17T22:31:50.136Z,97683.47
2023-03-17T22:34:35.847Z,97683.06
2023-03-17T22:37:21.301Z,97685.66
2023-03-17T22:40:07.585Z,97649.31
2023-03-17T22:42:55.641Z,97691.75
2023-03-17T22:45:41.203Z,97694.81
2023-03-17T22:48:26.415Z,97690.75
2023-03-17T22:51:15.065Z,97695.66
2023-03-17T22:54:00.546Z,97644.28
2023-03-17T22:56:45.986Z,97690.56
2023-03-17T22:59:31.450Z,97686.09
2023-03-17T23:02:18.555Z,97626.47
2023-03-17T23:05:04.574Z,97618.16
2023-03-17T23:07:51.402Z,97688.56
2023-03-17T23:10:38.832Z,97657.09
2023-03-17T23:13:24.285Z,97689.38
2023-03-17T23:16:09.841Z,97688.97
2023-03-17T23:18:55.518Z,97676.56
2023-03-17T23:21:40.935Z,97678.19
2023-03-17T23:24:26.143Z,97677.78
2023-03-17T23:27:11.802Z,97630.50
2023-03-17T23:29:57.274Z,97672.50
2023-03-17T23:32:42.520Z,97687.09
2023-03-17T23:35:28.069Z,97683.47
2023-03-17T23:38:13.457Z,97689.56
2023-03-17T23:40:59.268Z,97691.56
2023-03-17T23:43:45.101Z,97695.22
2023-03-17T23:46:31.378Z,97699.06
2023-03-17T23:49:17.173Z,97675.94
2023-03-17T23:52:02.443Z,97691.34
2023-03-17T23:54:48.496Z,97691.13
2023-03-17T23:57:34.516Z,97701.47
